Main page
METAR-TAF:

METAR-TAF

Airports :

Rijeka Airport

Rijeka, Croatia

latitude: 45-13N, longitude: 014-35E, elevation: 85 m

Current weather observation

The report was made 34 minutes ago, at 06:30 UTC
Wind 3 kt from the East/Southeast
Temperature 10°C
Humidity 93%
Pressure 1012 hPa
Visibility 10 km or more
Broken clouds at a height of 3300 ft

METAR: LDRI 210630Z 11003KT 9999 BKN033 10/09 Q1012

Time: 08:04 (07:04 UTC)

Forecast

The report was made 1 hour and 39 minutes ago, at 05:25 UTC
Forecast valid from 21 at 06 UTC to 22 at 06 UTC
Wind 2 kt from variable directions
Visibility 10 km or more
Broken clouds at a height of 3000 ft
Probability 30% :
Temporary
from 21 at 07 UTC to 21 at 22 UTC
Few clouds at a height of 2000 ft, Towering cumulus.
Broken clouds at a height of 3000 ft
rain showers
Temporary
from 21 at 08 UTC to 21 at 12 UTC
Wind 8 kt from the Southeast

TAF: LDRI 210525Z 2106/2206 VRB02KT 9999 BKN030 TX13/2112Z TN08/2205Z PROB30 TEMPO 2107/2122 SHRA FEW020TCU BKN030 TEMPO 2108/2112 14008KT

Weather observations and forecasts of more than 4000 airports (METAR and TAF reports).

The available stations are represented by yellow and red dots on the map.

Hover mouse over dot to see the name of the station.

Then click to see weather observations and forecasts.

To change the map : click on the green buttons with a black cross to zoom in, on the green button with a dash to zoom out, or on the green arrows for adjacent maps.


METAR-TAF: